createdAt,value
2023-05-22T00:01:12.149Z,4.90
2023-05-22T00:03:40.750Z,6.75
2023-05-22T00:06:10.091Z,5.28
2023-05-22T00:08:37.311Z,5.63
2023-05-22T00:11:04.481Z,5.20
2023-05-22T00:13:31.703Z,5.35
2023-05-22T00:15:58.704Z,5.13
2023-05-22T00:18:27.028Z,5.00
2023-05-22T00:20:54.230Z,5.05
2023-05-22T00:23:22.010Z,5.25
2023-05-22T00:25:50.666Z,10.00
2023-05-22T00:28:17.791Z,7.43
2023-05-22T00:30:45.944Z,5.30
2023-05-22T00:33:12.947Z,5.75
2023-05-22T00:35:39.932Z,7.60
2023-05-22T00:38:08.789Z,5.57
2023-05-22T00:40:36.141Z,5.43
2023-05-22T00:43:08.219Z,7.65
2023-05-22T00:45:35.309Z,5.28
2023-05-22T00:48:02.388Z,5.93
2023-05-22T00:50:29.529Z,7.88
2023-05-22T00:52:56.724Z,5.20
2023-05-22T00:55:23.736Z,5.82
2023-05-22T00:57:51.868Z,5.25
2023-05-22T01:00:19.477Z,5.05
2023-05-22T01:02:46.614Z,6.47
2023-05-22T01:05:17.992Z,5.70
2023-05-22T01:07:46.344Z,5.60
2023-05-22T01:10:13.454Z,7.15
2023-05-22T01:13:01.865Z,5.13
2023-05-22T01:15:56.600Z,5.93
2023-05-22T01:18:41.717Z,5.30
2023-05-22T01:21:30.061Z,5.65
2023-05-22T01:24:47.069Z,5.22
2023-05-22T01:27:54.200Z,4.90
2023-05-22T01:30:47.237Z,10.02
2023-05-22T01:33:17.595Z,4.70
2023-05-22T01:35:51.717Z,5.25
2023-05-22T01:38:19.760Z,5.35
2023-05-22T01:40:47.639Z,6.05
2023-05-22T01:43:16.445Z,8.25
2023-05-22T01:45:43.729Z,6.22
2023-05-22T01:48:12.027Z,6.20
2023-05-22T01:50:40.821Z,6.82
2023-05-22T01:53:26.488Z,6.28
2023-05-22T01:56:06.378Z,5.50
2023-05-22T01:58:50.504Z,5.60
2023-05-22T02:01:22.508Z,4.80
2023-05-22T02:04:10.026Z,5.22
2023-05-22T02:07:01.068Z,6.28
2023-05-22T02:09:33.190Z,5.63
2023-05-22T02:12:01.127Z,7.05
2023-05-22T02:14:30.197Z,6.45
2023-05-22T02:16:58.022Z,5.72
2023-05-22T02:19:27.016Z,5.63
2023-05-22T02:21:54.211Z,6.85
2023-05-22T02:24:23.547Z,5.13
2023-05-22T02:29:19.157Z,5.57
2023-05-22T02:31:46.381Z,6.28
2023-05-22T02:34:13.476Z,7.95
2023-05-22T02:36:41.278Z,6.53
2023-05-22T02:39:08.810Z,7.47
2023-05-22T02:41:35.805Z,6.30
2023-05-22T02:44:03.187Z,5.13
2023-05-22T02:46:30.391Z,6.32
2023-05-22T02:48:57.427Z,6.10
2023-05-22T02:51:24.431Z,5.65
2023-05-22T02:53:52.127Z,6.38
2023-05-22T02:56:20.894Z,4.78
2023-05-22T02:58:48.281Z,5.55
2023-05-22T03:01:15.474Z,5.82
2023-05-22T03:03:43.630Z,6.70
2023-05-22T03:06:10.960Z,6.68
2023-05-22T03:08:41.531Z,6.55
2023-05-22T03:11:09.221Z,8.45
2023-05-22T03:13:36.605Z,5.78
2023-05-22T03:16:03.927Z,7.18
2023-05-22T03:18:31.222Z,6.00
2023-05-22T03:20:58.246Z,8.10
2023-05-22T03:23:25.397Z,7.18
2023-05-22T03:25:53.131Z,7.78
2023-05-22T03:28:21.299Z,8.13
2023-05-22T03:30:49.426Z,8.55
2023-05-22T03:33:21.467Z,6.90
2023-05-22T03:35:50.090Z,8.15
2023-05-22T03:38:17.097Z,8.38
2023-05-22T03:40:44.298Z,8.05
2023-05-22T03:43:11.349Z,8.32
2023-05-22T03:45:39.288Z,7.70
2023-05-22T03:48:06.448Z,7.80
2023-05-22T03:50:33.593Z,9.88
2023-05-22T03:53:01.236Z,7.80
2023-05-22T03:55:30.741Z,8.32
2023-05-22T03:57:57.780Z,7.70
2023-05-22T04:00:26.786Z,9.23
2023-05-22T04:02:54.708Z,7.18
2023-05-22T04:05:24.413Z,8.27
2023-05-22T04:07:51.537Z,7.60
2023-05-22T04:10:20.922Z,7.93
2023-05-22T04:12:47.921Z,8.48
2023-05-22T04:15:14.988Z,7.60
2023-05-22T04:17:42.132Z,8.70
2023-05-22T04:20:09.825Z,8.07
2023-05-22T04:22:37.135Z,7.43
2023-05-22T04:25:04.419Z,9.45
2023-05-22T04:27:33.166Z,9.35
2023-05-22T04:30:03.598Z,8.70
2023-05-22T04:32:31.832Z,8.00
2023-05-22T04:35:00.398Z,6.93
2023-05-22T04:37:28.708Z,7.72
2023-05-22T04:39:58.200Z,7.03
2023-05-22T04:42:25.319Z,6.78
2023-05-22T04:44:57.965Z,8.30
2023-05-22T04:47:24.991Z,6.75
2023-05-22T04:49:52.036Z,6.82
2023-05-22T04:52:19.092Z,9.07
2023-05-22T04:55:06.695Z,7.68
2023-05-22T04:57:52.779Z,7.60
2023-05-22T05:00:38.907Z,7.03
2023-05-22T05:03:08.161Z,7.05
2023-05-22T05:05:35.619Z,8.68
2023-05-22T05:08:02.960Z,6.88
2023-05-22T05:10:29.998Z,7.80
2023-05-22T05:12:57.051Z,8.98
2023-05-22T05:15:24.097Z,8.63
2023-05-22T05:17:51.461Z,10.35
2023-05-22T05:20:18.737Z,7.65
2023-05-22T05:22:46.326Z,7.30
2023-05-22T05:25:14.611Z,7.90
2023-05-22T05:27:41.729Z,9.35
2023-05-22T05:30:10.659Z,8.32
2023-05-22T05:32:48.029Z,9.95
2023-05-22T05:35:31.578Z,9.18
2023-05-22T05:38:04.389Z,7.70
2023-05-22T05:40:33.690Z,7.75
2023-05-22T05:43:00.791Z,7.70
2023-05-22T05:45:29.588Z,7.93
2023-05-22T05:47:57.222Z,8.10
2023-05-22T05:50:24.452Z,6.93
2023-05-22T05:52:51.556Z,7.95
2023-05-22T05:55:19.833Z,7.20
2023-05-22T05:57:48.257Z,8.82
2023-05-22T06:00:22.580Z,7.72
2023-05-22T06:02:51.426Z,7.32
2023-05-22T06:05:37.117Z,7.53
2023-05-22T06:08:26.870Z,6.70
2023-05-22T06:10:54.051Z,7.20
2023-05-22T06:13:33.227Z,6.97
2023-05-22T06:16:04.096Z,7.90
2023-05-22T06:18:32.945Z,8.50
2023-05-22T06:21:00.580Z,7.90
2023-05-22T06:23:27.561Z,7.38
2023-05-22T06:25:55.869Z,7.93
2023-05-22T06:28:23.588Z,8.70
2023-05-22T06:30:51.036Z,9.57
2023-05-22T06:33:21.145Z,7.88
2023-05-22T06:35:48.412Z,9.10
2023-05-22T06:38:16.493Z,7.90
2023-05-22T06:40:44.281Z,8.55
2023-05-22T06:43:18.621Z,8.63
2023-05-22T06:45:51.193Z,10.35
2023-05-22T06:48:24.276Z,9.73
2023-05-22T06:51:01.174Z,8.50
2023-05-22T06:53:28.917Z,10.75
2023-05-22T06:55:57.047Z,9.10
2023-05-22T06:58:34.896Z,8.85
2023-05-22T07:01:05.099Z,11.90
2023-05-22T07:03:39.761Z,8.45
2023-05-22T07:06:33.585Z,9.35
2023-05-22T07:09:02.824Z,8.80
2023-05-22T07:11:29.905Z,7.63
2023-05-22T07:13:56.920Z,8.02
2023-05-22T07:16:25.607Z,7.65
2023-05-22T07:18:53.052Z,9.63
2023-05-22T07:21:23.640Z,7.32
2023-05-22T07:23:52.648Z,8.05
2023-05-22T07:26:19.727Z,6.75
2023-05-22T07:28:55.148Z,7.28
2023-05-22T07:31:22.222Z,9.52
2023-05-22T07:33:49.901Z,7.20
2023-05-22T07:36:18.908Z,13.48
2023-05-22T07:38:46.565Z,8.75
2023-05-22T07:41:13.958Z,7.22
2023-05-22T07:43:40.997Z,7.68
2023-05-22T07:46:11.474Z,7.80
2023-05-22T07:48:48.126Z,7.57
2023-05-22T07:51:16.736Z,7.28
2023-05-22T07:53:45.099Z,7.03
2023-05-22T07:56:12.104Z,9.70
2023-05-22T07:58:40.064Z,7.03
2023-05-22T08:01:09.383Z,10.15
2023-05-22T08:03:36.832Z,9.27
2023-05-22T08:06:04.459Z,10.00
2023-05-22T08:08:32.695Z,10.05
2023-05-22T08:11:04.288Z,9.15
2023-05-22T08:13:32.206Z,9.27
2023-05-22T08:16:00.459Z,9.57
2023-05-22T08:18:29.261Z,11.07
2023-05-22T08:20:56.861Z,9.60
2023-05-22T08:23:24.066Z,10.98
2023-05-22T08:25:51.143Z,10.98
2023-05-22T08:28:18.327Z,10.82
2023-05-22T08:30:45.554Z,11.82
2023-05-22T08:33:12.634Z,12.73
2023-05-22T08:35:39.752Z,13.45
2023-05-22T08:38:07.265Z,11.73
2023-05-22T08:40:39.383Z,12.50
2023-05-22T08:43:06.910Z,11.65
2023-05-22T08:45:34.664Z,10.70
2023-05-22T08:48:06.334Z,11.18
2023-05-22T08:50:40.656Z,17.33
2023-05-22T08:53:11.219Z,10.35
2023-05-22T08:55:38.599Z,9.55
2023-05-22T08:58:06.057Z,10.45
2023-05-22T09:00:33.586Z,9.57
2023-05-22T09:03:00.751Z,12.38
2023-05-22T09:05:27.891Z,10.15
2023-05-22T09:08:02.648Z,10.77
2023-05-22T09:10:36.000Z,11.13
2023-05-22T09:13:11.529Z,9.13
2023-05-22T09:15:38.593Z,8.75
2023-05-22T09:18:06.488Z,9.13
2023-05-22T09:20:38.955Z,10.85
2023-05-22T09:23:17.541Z,8.70
2023-05-22T09:25:45.491Z,8.10
2023-05-22T09:28:13.241Z,11.52
2023-05-22T09:30:42.469Z,8.93
2023-05-22T09:33:14.124Z,8.75
2023-05-22T09:35:42.094Z,8.00
2023-05-22T09:38:10.308Z,9.02
2023-05-22T09:40:43.121Z,8.20
2023-05-22T09:43:11.182Z,8.80
2023-05-22T09:45:39.242Z,8.50
2023-05-22T09:48:08.593Z,9.13
2023-05-22T09:50:36.960Z,8.35
2023-05-22T09:53:04.975Z,9.90
2023-05-22T09:55:33.617Z,8.77
2023-05-22T09:58:05.294Z,10.90
2023-05-22T10:00:35.125Z,9.73
2023-05-22T10:03:17.968Z,9.45
2023-05-22T10:05:52.386Z,9.05
2023-05-22T10:08:32.729Z,9.07
2023-05-22T10:11:00.021Z,8.93
2023-05-22T10:13:27.842Z,9.77
2023-05-22T10:15:55.015Z,10.10
2023-05-22T10:18:23.087Z,9.32
2023-05-22T10:20:50.307Z,11.60
2023-05-22T10:23:18.630Z,11.07
2023-05-22T10:25:46.515Z,9.32
2023-05-22T10:28:24.295Z,10.75
2023-05-22T10:31:07.869Z,8.80
2023-05-22T10:34:02.770Z,8.40
2023-05-22T10:37:17.289Z,8.25
2023-05-22T10:40:14.633Z,7.65
2023-05-22T10:42:43.247Z,8.98
2023-05-22T10:45:11.267Z,8.02
2023-05-22T10:47:38.501Z,8.63
2023-05-22T10:50:11.798Z,8.00
2023-05-22T10:52:39.935Z,7.63
2023-05-22T10:55:11.271Z,7.53
2023-05-22T10:57:39.861Z,8.13
2023-05-22T11:00:19.215Z,8.15
2023-05-22T11:02:49.984Z,9.13
2023-05-22T11:05:36.486Z,7.60
2023-05-22T11:08:26.305Z,7.30
2023-05-22T11:10:59.090Z,7.20
2023-05-22T11:13:29.272Z,7.63
2023-05-22T11:15:57.682Z,8.20
2023-05-22T11:18:29.013Z,6.38
2023-05-22T11:20:56.092Z,6.40
2023-05-22T11:23:25.741Z,7.80
2023-05-22T11:25:53.060Z,9.18
2023-05-22T11:28:20.422Z,6.60
2023-05-22T11:30:47.866Z,5.75
2023-05-22T11:33:15.170Z,6.35
2023-05-22T11:35:44.497Z,5.60
2023-05-22T11:40:39.825Z,5.63
2023-05-22T11:43:07.167Z,5.97
2023-05-22T11:45:37.704Z,5.35
2023-05-22T11:48:04.767Z,5.57
2023-05-22T11:50:41.566Z,5.70
2023-05-22T11:53:09.785Z,5.80
2023-05-22T11:55:36.784Z,5.75
2023-05-22T11:58:03.818Z,6.65
2023-05-22T12:00:31.668Z,5.93
2023-05-22T12:02:59.134Z,9.45
2023-05-22T12:05:26.353Z,5.70
2023-05-22T12:07:53.426Z,5.50
2023-05-22T12:10:20.545Z,5.97
2023-05-22T12:12:48.216Z,5.95
2023-05-22T12:15:20.417Z,8.38
2023-05-22T12:17:47.599Z,5.25
2023-05-22T12:20:14.703Z,7.63
2023-05-22T12:22:43.425Z,4.32
2023-05-22T12:25:16.414Z,5.30
2023-05-22T12:27:45.438Z,7.97
2023-05-22T12:32:47.089Z,4.45
2023-05-22T12:35:18.360Z,4.68
2023-05-22T12:37:52.447Z,8.63
2023-05-22T12:40:19.744Z,4.68
2023-05-22T12:42:48.908Z,5.40
2023-05-22T12:45:17.693Z,4.68
2023-05-22T12:47:44.834Z,4.75
2023-05-22T12:50:12.060Z,5.30
2023-05-22T12:52:39.109Z,4.57
2023-05-22T12:55:07.136Z,4.82
2023-05-22T12:57:34.093Z,4.90
2023-05-22T13:00:01.071Z,5.45
2023-05-22T13:02:28.102Z,4.75
2023-05-22T13:04:55.224Z,6.05
2023-05-22T13:07:22.589Z,6.05
2023-05-22T13:09:49.717Z,4.72
2023-05-22T13:12:16.889Z,4.90
2023-05-22T13:14:43.994Z,4.30
2023-05-22T13:17:11.653Z,4.85
2023-05-22T13:19:38.766Z,4.22
2023-05-22T13:22:07.484Z,3.70
2023-05-22T13:24:34.512Z,7.55
2023-05-22T13:27:01.802Z,5.05
2023-05-22T13:29:28.826Z,4.80
2023-05-22T13:31:55.962Z,4.47
2023-05-22T13:34:23.160Z,3.88
2023-05-22T13:36:50.592Z,4.45
2023-05-22T13:39:17.625Z,4.32
2023-05-22T13:41:45.104Z,4.38
2023-05-22T13:44:12.186Z,4.68
2023-05-22T13:46:40.879Z,6.18
2023-05-22T13:49:08.226Z,4.55
2023-05-22T13:51:35.611Z,5.72
2023-05-22T13:54:03.949Z,5.97
2023-05-22T13:56:31.268Z,4.32
2023-05-22T13:58:58.316Z,6.38
2023-05-22T14:01:25.409Z,4.47
2023-05-22T14:03:52.516Z,4.43
2023-05-22T14:06:19.581Z,4.50
2023-05-22T14:08:46.609Z,5.93
2023-05-22T14:11:13.621Z,5.63
2023-05-22T14:13:40.670Z,4.40
2023-05-22T14:16:07.652Z,5.70
2023-05-22T14:18:34.759Z,4.30
2023-05-22T14:21:04.009Z,4.50
2023-05-22T14:23:31.817Z,4.43
2023-05-22T14:25:58.850Z,5.10
2023-05-22T14:28:26.013Z,4.53
2023-05-22T14:30:53.119Z,4.85
2023-05-22T14:33:20.136Z,4.65
2023-05-22T14:35:48.334Z,4.57
2023-05-22T14:38:15.485Z,6.37
2023-05-22T14:40:42.774Z,4.97
2023-05-22T14:43:09.768Z,4.97
2023-05-22T14:45:36.786Z,4.85
2023-05-22T14:48:04.637Z,4.65
2023-05-22T14:50:31.675Z,4.32
2023-05-22T14:52:58.909Z,5.32
2023-05-22T14:55:28.026Z,4.25
2023-05-22T14:57:55.676Z,5.18
2023-05-22T15:00:22.756Z,5.00
2023-05-22T15:02:49.791Z,4.30
2023-05-22T15:05:16.931Z,4.43
2023-05-22T15:07:46.054Z,4.43
2023-05-22T15:10:14.613Z,8.88
2023-05-22T15:12:41.643Z,4.65
2023-05-22T15:15:09.162Z,7.40
2023-05-22T15:17:36.286Z,3.42
2023-05-22T15:20:05.367Z,4.00
2023-05-22T15:22:32.389Z,3.22
2023-05-22T15:25:09.559Z,5.85
2023-05-22T15:27:38.862Z,6.40
2023-05-22T15:30:09.458Z,5.50
2023-05-22T15:32:37.487Z,4.68
2023-05-22T15:35:06.134Z,4.68
2023-05-22T15:37:36.488Z,3.53
2023-05-22T15:40:07.124Z,4.18
2023-05-22T15:42:34.239Z,4.68
2023-05-22T15:45:01.334Z,4.30
2023-05-22T15:47:29.771Z,5.50
2023-05-22T15:49:56.796Z,3.67
2023-05-22T15:52:24.532Z,3.80
2023-05-22T15:54:51.673Z,6.85
2023-05-22T15:57:18.863Z,7.07
2023-05-22T15:59:47.289Z,4.18
2023-05-22T16:02:14.721Z,4.57
2023-05-22T16:04:41.832Z,3.25
2023-05-22T16:07:08.882Z,3.08
2023-05-22T16:09:36.304Z,4.35
2023-05-22T16:12:04.087Z,5.95
2023-05-22T16:14:31.542Z,4.03
2023-05-22T16:16:58.652Z,5.10
2023-05-22T16:19:28.055Z,3.25
2023-05-22T16:21:55.421Z,6.40
2023-05-22T16:24:22.484Z,4.40
2023-05-22T16:26:49.488Z,5.03
2023-05-22T16:29:22.226Z,5.70
2023-05-22T16:31:49.306Z,4.68
2023-05-22T16:34:16.377Z,4.72
2023-05-22T16:36:43.886Z,9.30
2023-05-22T16:39:11.182Z,6.00
2023-05-22T16:41:38.215Z,6.72
2023-05-22T16:44:05.474Z,5.65
2023-05-22T16:46:32.549Z,8.25
2023-05-22T16:48:59.567Z,6.00
2023-05-22T16:51:26.543Z,7.15
2023-05-22T16:53:53.567Z,7.82
2023-05-22T16:56:21.012Z,6.93
2023-05-22T16:58:48.061Z,5.95
2023-05-22T17:01:15.332Z,7.35
2023-05-22T17:03:42.504Z,5.63
2023-05-22T17:06:09.638Z,6.25
2023-05-22T17:08:36.678Z,5.55
2023-05-22T17:11:07.760Z,5.10
2023-05-22T17:13:34.802Z,5.00
2023-05-22T17:16:01.824Z,5.78
2023-05-22T17:18:28.842Z,4.47
2023-05-22T17:20:55.878Z,4.00
2023-05-22T17:23:22.958Z,8.85
2023-05-22T17:25:50.645Z,7.50
2023-05-22T17:28:17.836Z,3.72
2023-05-22T17:30:46.002Z,4.22
2023-05-22T17:33:13.898Z,5.68
2023-05-22T17:35:41.696Z,4.15
2023-05-22T17:38:08.807Z,6.63
2023-05-22T17:40:44.676Z,4.20
2023-05-22T17:43:14.276Z,6.07
2023-05-22T17:45:41.819Z,4.20
2023-05-22T17:48:09.153Z,4.72
2023-05-22T17:50:36.295Z,5.72
2023-05-22T17:53:03.383Z,3.97
2023-05-22T17:55:30.550Z,5.38
2023-05-22T17:57:58.641Z,5.35
2023-05-22T18:00:25.725Z,5.95
2023-05-22T18:02:52.964Z,4.75
2023-05-22T18:05:20.132Z,6.57
2023-05-22T18:07:48.182Z,4.20
2023-05-22T18:10:15.324Z,4.18
2023-05-22T18:12:45.016Z,4.57
2023-05-22T18:15:12.289Z,3.25
2023-05-22T18:17:41.121Z,3.70
2023-05-22T18:20:11.865Z,4.40
2023-05-22T18:22:39.887Z,4.18
2023-05-22T18:25:07.843Z,4.15
2023-05-22T18:27:36.219Z,3.95
2023-05-22T18:30:05.230Z,3.58
2023-05-22T18:32:34.798Z,3.75
2023-05-22T18:35:03.704Z,3.50
2023-05-22T18:37:30.872Z,3.88
2023-05-22T18:39:58.053Z,3.63
2023-05-22T18:42:25.256Z,5.50
2023-05-22T18:44:52.278Z,4.70
2023-05-22T18:47:19.466Z,3.90
2023-05-22T18:49:46.495Z,5.70
2023-05-22T18:52:13.553Z,5.53
2023-05-22T18:54:40.638Z,5.20
2023-05-22T18:57:07.868Z,5.10
2023-05-22T18:59:35.021Z,5.03
2023-05-22T19:02:02.103Z,5.80
2023-05-22T19:04:29.137Z,4.47
2023-05-22T19:06:56.398Z,4.30
2023-05-22T19:09:24.085Z,5.32
2023-05-22T19:11:51.240Z,4.68
2023-05-22T19:14:18.424Z,3.88
2023-05-22T19:16:45.603Z,4.20
2023-05-22T19:19:12.815Z,4.68
2023-05-22T19:21:39.850Z,6.95
2023-05-22T19:24:07.415Z,4.38
2023-05-22T19:26:34.465Z,8.05
2023-05-22T19:29:01.514Z,5.93
2023-05-22T19:31:29.641Z,5.93
2023-05-22T19:33:56.933Z,5.60
2023-05-22T19:36:23.916Z,12.40
2023-05-22T19:38:53.234Z,6.60
2023-05-22T19:41:20.550Z,5.75
2023-05-22T19:43:47.577Z,6.97
2023-05-22T19:46:14.717Z,5.25
2023-05-22T19:48:41.750Z,5.88
2023-05-22T19:51:08.813Z,7.68
2023-05-22T19:53:36.483Z,6.53
2023-05-22T19:56:03.561Z,5.88
2023-05-22T19:58:30.685Z,6.88
2023-05-22T20:00:57.755Z,6.82
2023-05-22T20:03:26.187Z,6.47
2023-05-22T20:05:53.807Z,6.85
2023-05-22T20:08:25.804Z,6.85
2023-05-22T20:10:53.013Z,5.82
2023-05-22T20:13:20.132Z,9.20
2023-05-22T20:15:47.839Z,6.35
2023-05-22T20:18:15.076Z,7.03
2023-05-22T20:20:42.204Z,10.07
2023-05-22T20:23:09.252Z,6.75
2023-05-22T20:25:37.464Z,8.02
2023-05-22T20:28:04.980Z,7.38
2023-05-22T20:30:32.427Z,8.00
2023-05-22T20:32:59.475Z,8.75
2023-05-22T20:35:26.849Z,8.07
2023-05-22T20:37:53.884Z,11.88
2023-05-22T20:40:21.722Z,7.85
2023-05-22T20:42:49.103Z,10.02
2023-05-22T20:45:16.449Z,7.80
2023-05-22T20:47:43.891Z,10.32
2023-05-22T20:50:11.522Z,8.18
2023-05-22T20:52:38.555Z,8.00
2023-05-22T20:55:06.726Z,9.32
2023-05-22T20:57:34.520Z,8.93
2023-05-22T21:00:01.977Z,10.82
2023-05-22T21:02:30.961Z,9.75
2023-05-22T21:04:57.975Z,9.13
2023-05-22T21:07:24.971Z,9.70
2023-05-22T21:09:51.988Z,9.35
2023-05-22T21:12:18.997Z,11.35
2023-05-22T21:14:46.979Z,9.63
2023-05-22T21:17:14.031Z,8.65
2023-05-22T21:19:41.097Z,10.35
2023-05-22T21:22:08.619Z,8.35
2023-05-22T21:24:35.726Z,10.00
2023-05-22T21:27:02.847Z,12.02
2023-05-22T21:29:29.836Z,10.20
2023-05-22T21:31:56.863Z,10.35
2023-05-22T21:34:24.033Z,9.23
2023-05-22T21:36:51.075Z,10.43
2023-05-22T21:39:18.140Z,9.25
2023-05-22T21:41:45.722Z,10.57
2023-05-22T21:44:13.451Z,15.18
2023-05-22T21:46:40.520Z,9.48
2023-05-22T21:49:09.526Z,10.43
2023-05-22T21:51:37.515Z,9.70
2023-05-22T21:54:04.639Z,10.13
2023-05-22T21:56:31.620Z,10.82
2023-05-22T21:58:58.619Z,12.32
2023-05-22T22:01:25.792Z,9.80
2023-05-22T22:03:53.079Z,10.25
2023-05-22T22:06:20.089Z,11.15
2023-05-22T22:08:50.854Z,10.75
2023-05-22T22:11:17.949Z,11.93
2023-05-22T22:13:44.952Z,13.55
2023-05-22T22:16:12.048Z,11.80
2023-05-22T22:18:40.587Z,10.70
2023-05-22T22:21:07.592Z,11.68
2023-05-22T22:23:34.601Z,15.05
2023-05-22T22:26:01.696Z,14.43
2023-05-22T22:28:29.030Z,11.93
2023-05-22T22:30:56.090Z,11.70
2023-05-22T22:33:23.102Z,13.27
2023-05-22T22:35:51.271Z,16.83
2023-05-22T22:38:18.592Z,15.43
2023-05-22T22:40:45.654Z,12.25
2023-05-22T22:43:12.688Z,14.00
2023-05-22T22:45:40.232Z,11.85
2023-05-22T22:48:07.686Z,11.95
2023-05-22T22:50:34.810Z,12.05
2023-05-22T22:53:01.869Z,13.73
2023-05-22T22:55:29.076Z,12.88
2023-05-22T22:57:56.319Z,14.38
2023-05-22T23:00:23.622Z,13.38
2023-05-22T23:02:51.056Z,17.95
2023-05-22T23:05:21.210Z,14.90
2023-05-22T23:07:48.613Z,17.20
2023-05-22T23:10:15.850Z,16.27
2023-05-22T23:12:42.960Z,19.05
2023-05-22T23:15:12.993Z,18.42
2023-05-22T23:17:41.258Z,18.42
2023-05-22T23:20:08.993Z,18.20
2023-05-22T23:22:36.042Z,19.70
2023-05-22T23:25:03.381Z,22.75
2023-05-22T23:27:30.464Z,23.05
2023-05-22T23:29:58.123Z,22.30
2023-05-22T23:32:25.210Z,23.27
2023-05-22T23:34:52.238Z,20.42
2023-05-22T23:37:19.230Z,22.30
2023-05-22T23:39:46.208Z,20.15
2023-05-22T23:42:13.231Z,21.38
2023-05-22T23:44:40.225Z,19.50
2023-05-22T23:47:08.037Z,15.80
2023-05-22T23:49:35.270Z,18.00
2023-05-22T23:52:02.257Z,18.75
2023-05-22T23:54:29.248Z,19.83
2023-05-22T23:56:56.252Z,20.40
2023-05-22T23:59:23.251Z,19.67
